createdAt,value
2019-05-10T00:00:19.217Z,23.86
2019-05-10T00:03:08.423Z,23.74
2019-05-10T00:05:57.875Z,23.75
2019-05-10T00:08:47.083Z,23.78
2019-05-10T00:11:39.369Z,23.62
2019-05-10T00:14:13.779Z,23.54
2019-05-10T00:16:45.235Z,23.51
2019-05-10T00:19:17.237Z,23.54
2019-05-10T00:21:48.569Z,23.50
2019-05-10T00:24:20.996Z,23.53
2019-05-10T00:26:52.380Z,23.61
2019-05-10T00:29:23.700Z,23.64
2019-05-10T00:31:55.397Z,23.67
2019-05-10T00:34:26.856Z,23.68
2019-05-10T00:36:58.295Z,23.70
2019-05-10T00:39:29.752Z,23.73
2019-05-10T00:42:01.309Z,23.73
2019-05-10T00:44:32.763Z,23.74
2019-05-10T00:47:04.429Z,23.78
2019-05-10T00:49:37.103Z,23.81
2019-05-10T00:52:08.549Z,23.81
2019-05-10T00:54:40.218Z,23.86
2019-05-10T00:57:11.682Z,23.93
2019-05-10T00:59:42.793Z,23.90
2019-05-10T01:02:14.379Z,23.96
2019-05-10T01:04:45.843Z,23.93
2019-05-10T01:07:17.171Z,23.94
2019-05-10T01:09:48.751Z,23.90
2019-05-10T01:12:21.329Z,23.87
2019-05-10T01:14:52.795Z,23.78
2019-05-10T01:17:24.175Z,23.75
2019-05-10T01:19:56.119Z,23.63
2019-05-10T01:22:27.360Z,23.65
2019-05-10T01:24:58.812Z,23.64
2019-05-10T01:27:29.971Z,23.59
2019-05-10T01:30:01.734Z,23.50
2019-05-10T01:32:33.427Z,23.46
2019-05-10T01:35:06.346Z,23.37
2019-05-10T01:37:37.534Z,23.34
2019-05-10T01:40:08.787Z,23.33
2019-05-10T01:42:40.252Z,23.25
2019-05-10T01:45:12.413Z,23.16
2019-05-10T01:47:43.752Z,23.11
2019-05-10T01:50:15.006Z,23.13
2019-05-10T01:52:46.612Z,23.11
2019-05-10T01:55:18.277Z,23.07
2019-05-10T01:57:49.888Z,23.06
2019-05-10T02:00:21.364Z,22.99
2019-05-10T02:02:55.626Z,23.04
2019-05-10T02:05:27.650Z,22.96
2019-05-10T02:07:59.191Z,22.99
2019-05-10T02:10:30.643Z,22.92
2019-05-10T02:13:02.313Z,22.90
2019-05-10T02:15:33.686Z,22.82
2019-05-10T02:18:05.727Z,22.78
2019-05-10T02:20:37.494Z,22.81
2019-05-10T02:23:09.150Z,22.79
2019-05-10T02:25:40.504Z,22.79
2019-05-10T02:28:11.945Z,22.81
2019-05-10T02:30:43.821Z,22.76
2019-05-10T02:33:15.576Z,22.78
2019-05-10T02:35:47.551Z,22.82
2019-05-10T02:38:19.603Z,22.90
2019-05-10T02:40:51.588Z,22.96
2019-05-10T02:43:23.325Z,22.98
2019-05-10T02:45:55.227Z,23.02
2019-05-10T02:48:26.908Z,22.97
2019-05-10T02:50:59.066Z,23.08
2019-05-10T02:53:30.705Z,23.11
2019-05-10T02:56:03.891Z,23.15
2019-05-10T02:58:35.450Z,23.17
2019-05-10T03:01:06.927Z,23.26
2019-05-10T03:03:38.499Z,23.30
2019-05-10T03:06:10.280Z,23.30
2019-05-10T03:08:52.632Z,23.40
2019-05-10T03:11:24.255Z,23.41
2019-05-10T03:13:55.868Z,23.40
2019-05-10T03:16:27.822Z,23.46
2019-05-10T03:18:59.708Z,23.52
2019-05-10T03:21:31.262Z,23.57
2019-05-10T03:24:04.434Z,23.54
2019-05-10T03:26:50.473Z,23.52
2019-05-10T03:29:09.397Z,23.50
2019-05-10T03:31:40.965Z,23.60
2019-05-10T03:34:12.351Z,23.65
2019-05-10T03:36:43.786Z,23.72
2019-05-10T03:39:15.665Z,23.83
2019-05-10T03:41:47.073Z,23.97
2019-05-10T03:44:18.701Z,24.13
2019-05-10T03:46:50.445Z,24.24
2019-05-10T03:49:21.765Z,24.26
2019-05-10T03:51:53.289Z,24.22
2019-05-10T03:54:25.803Z,24.18
2019-05-10T03:57:12.358Z,24.23
2019-05-10T03:59:30.733Z,24.25
2019-05-10T04:02:02.346Z,24.29
2019-05-10T04:04:34.160Z,24.33
2019-05-10T04:07:05.722Z,24.31
2019-05-10T04:09:36.971Z,24.30
2019-05-10T04:12:10.172Z,24.38
2019-05-10T04:14:41.687Z,24.39
2019-05-10T04:17:13.637Z,24.47
2019-05-10T04:19:45.043Z,24.52
2019-05-10T04:22:16.740Z,24.24
2019-05-10T04:24:49.238Z,24.25
2019-05-10T04:27:31.542Z,24.26
2019-05-10T04:29:54.448Z,24.39
2019-05-10T04:32:26.305Z,24.44
2019-05-10T04:34:57.967Z,24.44
2019-05-10T04:37:29.583Z,24.50
2019-05-10T04:40:01.286Z,24.58
2019-05-10T04:42:32.542Z,24.68
2019-05-10T04:45:04.496Z,24.72
2019-05-10T04:47:35.828Z,24.72
2019-05-10T04:50:08.254Z,24.81
2019-05-10T04:52:39.884Z,24.88
2019-05-10T04:55:12.104Z,24.76
2019-05-10T04:57:50.297Z,24.65
2019-05-10T05:00:16.804Z,24.58
2019-05-10T05:02:48.276Z,24.58
2019-05-10T05:05:19.709Z,24.40
2019-05-10T05:07:51.159Z,24.30
2019-05-10T05:10:23.222Z,24.31
2019-05-10T05:12:54.775Z,23.98
2019-05-10T05:15:26.039Z,23.98
2019-05-10T05:17:57.388Z,24.02
2019-05-10T05:20:28.862Z,23.93
2019-05-10T05:23:00.498Z,24.03
2019-05-10T05:25:35.158Z,24.07
2019-05-10T05:28:08.085Z,24.25
2019-05-10T05:30:38.814Z,24.34
2019-05-10T05:33:10.484Z,24.34
2019-05-10T05:35:42.063Z,24.49
2019-05-10T05:38:14.137Z,24.49
2019-05-10T05:40:47.022Z,24.63
2019-05-10T05:43:18.360Z,24.63
2019-05-10T05:45:50.145Z,24.77
2019-05-10T05:48:23.122Z,24.88
2019-05-10T05:50:54.559Z,25.00
2019-05-10T05:53:26.213Z,25.19
2019-05-10T05:55:57.229Z,25.49
2019-05-10T05:58:28.912Z,25.78
2019-05-10T06:01:00.464Z,25.96
2019-05-10T06:03:31.716Z,26.16
2019-05-10T06:06:15.312Z,26.32
2019-05-10T06:08:36.777Z,26.51
2019-05-10T06:11:09.298Z,26.74
2019-05-10T06:13:40.702Z,26.88
2019-05-10T06:16:14.500Z,27.05
2019-05-10T06:18:47.424Z,27.17
2019-05-10T06:21:24.521Z,27.27
2019-05-10T06:23:51.110Z,27.41
2019-05-10T06:26:28.358Z,27.53
2019-05-10T06:28:59.801Z,27.67
2019-05-10T06:31:28.537Z,27.84
2019-05-10T06:33:59.894Z,28.04
2019-05-10T06:36:31.927Z,28.28
2019-05-10T06:39:04.040Z,28.46
2019-05-10T06:41:35.264Z,28.39
2019-05-10T06:44:07.768Z,28.39
2019-05-10T06:46:39.223Z,28.50
2019-05-10T06:49:12.205Z,28.36
2019-05-10T06:51:49.018Z,28.25
2019-05-10T06:54:17.294Z,28.39
2019-05-10T06:56:48.892Z,28.41
2019-05-10T06:59:25.017Z,28.73
2019-05-10T07:01:54.760Z,28.97
2019-05-10T07:04:27.217Z,28.92
2019-05-10T07:07:00.873Z,28.81
2019-05-10T07:10:00.538Z,28.77
2019-05-10T07:12:09.402Z,28.81
2019-05-10T07:14:45.608Z,28.96
2019-05-10T07:17:12.850Z,29.00
2019-05-10T07:19:53.423Z,29.11
2019-05-10T07:22:21.642Z,29.20
2019-05-10T07:24:57.187Z,29.09
2019-05-10T07:27:26.285Z,28.99
2019-05-10T07:29:57.927Z,28.81
2019-05-10T07:32:29.736Z,28.75
2019-05-10T07:35:02.293Z,28.64
2019-05-10T07:37:33.728Z,28.37
2019-05-10T07:40:07.932Z,28.34
2019-05-10T07:42:45.169Z,28.33
2019-05-10T07:45:12.886Z,28.29
2019-05-10T07:47:44.548Z,27.78
2019-05-10T07:50:16.066Z,27.81
2019-05-10T07:52:48.061Z,28.17
2019-05-10T07:55:28.072Z,28.12
2019-05-10T07:57:53.192Z,28.28
2019-05-10T08:00:25.573Z,28.33
2019-05-10T08:03:07.560Z,28.31
2019-05-10T08:05:30.133Z,28.22
2019-05-10T08:08:01.624Z,27.95
2019-05-10T08:10:33.529Z,27.87
2019-05-10T08:13:05.125Z,28.39
2019-05-10T08:15:38.336Z,28.83
2019-05-10T08:18:09.959Z,28.58
2019-05-10T08:20:50.426Z,27.85
2019-05-10T08:23:17.934Z,27.68
2019-05-10T08:25:47.808Z,28.38
2019-05-10T08:28:19.191Z,28.30
2019-05-10T08:30:57.788Z,28.16
2019-05-10T08:33:23.991Z,28.43
2019-05-10T08:36:00.773Z,28.63
2019-05-10T08:38:28.534Z,28.99
2019-05-10T08:41:02.518Z,29.31
2019-05-10T08:43:38.890Z,29.53
2019-05-10T08:46:06.479Z,29.66
2019-05-10T08:48:43.360Z,29.66
2019-05-10T08:51:12.515Z,29.54
2019-05-10T08:53:47.181Z,29.69
2019-05-10T08:56:21.732Z,29.98
2019-05-10T08:58:49.798Z,30.32
2019-05-10T09:01:29.471Z,30.67
2019-05-10T09:04:00.698Z,31.18
2019-05-10T09:06:28.453Z,31.28
2019-05-10T09:09:03.171Z,31.56
2019-05-10T09:11:33.216Z,31.65
2019-05-10T09:14:05.179Z,31.56
2019-05-10T09:16:43.515Z,31.01
2019-05-10T09:19:09.515Z,30.64
2019-05-10T09:21:49.309Z,30.25
2019-05-10T09:24:13.856Z,29.91
2019-05-10T09:26:46.834Z,30.07
2019-05-10T09:29:18.772Z,30.35
2019-05-10T09:31:53.182Z,30.56
2019-05-10T09:34:26.089Z,30.86
2019-05-10T09:36:57.691Z,30.97
2019-05-10T09:39:29.140Z,31.15
2019-05-10T09:42:07.662Z,30.06
2019-05-10T09:44:33.687Z,29.45
2019-05-10T09:47:05.257Z,29.57
2019-05-10T09:49:36.701Z,29.57
2019-05-10T09:52:12.573Z,29.60
2019-05-10T09:54:41.147Z,29.50
2019-05-10T09:57:12.876Z,29.33
2019-05-10T09:59:44.362Z,29.43
2019-05-10T10:02:18.666Z,29.64
2019-05-10T10:04:49.476Z,30.02
2019-05-10T10:07:24.204Z,30.17
2019-05-10T10:09:53.967Z,30.13
2019-05-10T10:12:25.308Z,30.01
2019-05-10T10:14:56.759Z,29.88
2019-05-10T10:17:30.738Z,30.00
2019-05-10T10:20:01.095Z,29.98
2019-05-10T10:22:33.343Z,29.91
2019-05-10T10:25:07.395Z,29.51
2019-05-10T10:27:39.632Z,29.32
2019-05-10T10:30:17.836Z,29.46
2019-05-10T10:32:44.605Z,29.19
2019-05-10T10:35:20.954Z,30.26
2019-05-10T10:37:48.964Z,30.55
2019-05-10T10:40:21.491Z,31.11
2019-05-10T10:42:53.987Z,31.26
2019-05-10T10:45:27.591Z,31.46
2019-05-10T10:48:02.371Z,31.70
2019-05-10T10:50:31.525Z,31.76
2019-05-10T10:53:02.743Z,31.94
2019-05-10T10:55:37.084Z,31.67
2019-05-10T10:58:08.023Z,31.72
2019-05-10T11:00:39.466Z,32.47
2019-05-10T11:03:10.728Z,33.22
2019-05-10T11:05:41.981Z,33.29
2019-05-10T11:08:13.428Z,33.01
2019-05-10T11:10:44.780Z,32.55
2019-05-10T11:13:23.692Z,31.74
2019-05-10T11:15:51.535Z,31.01
2019-05-10T11:18:21.904Z,30.73
2019-05-10T11:20:54.189Z,30.33
2019-05-10T11:23:34.044Z,30.21
2019-05-10T11:25:58.113Z,31.03
2019-05-10T11:28:38.483Z,32.38
2019-05-10T11:31:03.162Z,33.60
2019-05-10T11:33:34.168Z,34.42
2019-05-10T11:36:08.869Z,35.21
2019-05-10T11:38:42.012Z,35.96
2019-05-10T11:41:20.694Z,36.55
2019-05-10T11:43:46.365Z,36.71
2019-05-10T11:46:17.410Z,37.44
2019-05-10T11:48:50.370Z,37.95
2019-05-10T11:51:21.755Z,38.30
2019-05-10T11:53:55.351Z,38.55
2019-05-10T11:56:27.722Z,38.99
2019-05-10T11:59:02.697Z,39.07
2019-05-10T12:01:34.014Z,39.42
2019-05-10T12:04:13.098Z,38.60
2019-05-10T12:06:49.483Z,36.85
2019-05-10T12:09:13.953Z,36.21
2019-05-10T12:11:51.616Z,35.99
2019-05-10T12:14:18.043Z,36.26
2019-05-10T12:16:54.236Z,36.59
2019-05-10T12:19:23.242Z,37.49
2019-05-10T12:21:55.987Z,38.37
2019-05-10T12:24:45.230Z,38.48
2019-05-10T12:27:25.321Z,37.99
2019-05-10T12:29:34.335Z,38.16
2019-05-10T12:32:05.585Z,36.96
2019-05-10T12:34:36.741Z,35.81
2019-05-10T12:37:08.617Z,36.29
2019-05-10T12:39:39.839Z,37.54
2019-05-10T12:42:14.411Z,38.84
2019-05-10T12:44:47.918Z,38.40
2019-05-10T12:47:17.624Z,38.19
2019-05-10T12:49:54.003Z,38.01
2019-05-10T12:52:27.732Z,37.89
2019-05-10T12:54:54.706Z,37.28
2019-05-10T12:57:26.664Z,37.00
2019-05-10T12:59:57.808Z,36.83
2019-05-10T13:02:29.267Z,35.56
2019-05-10T13:05:00.517Z,36.28
2019-05-10T13:07:36.444Z,37.14
2019-05-10T13:10:09.323Z,37.62
2019-05-10T13:12:44.345Z,37.10
2019-05-10T13:15:14.105Z,36.31
2019-05-10T13:17:50.421Z,35.43
2019-05-10T13:20:18.657Z,34.78
2019-05-10T13:22:51.025Z,35.41
2019-05-10T13:25:22.291Z,36.39
2019-05-10T13:27:53.819Z,36.78
2019-05-10T13:30:28.099Z,37.47
2019-05-10T13:32:58.964Z,37.80
2019-05-10T13:35:31.661Z,38.85
2019-05-10T13:38:06.230Z,39.76
2019-05-10T13:40:38.897Z,39.48
2019-05-10T13:43:09.089Z,37.41
2019-05-10T13:45:41.458Z,35.65
2019-05-10T13:48:13.983Z,34.37
2019-05-10T13:50:45.525Z,33.28
2019-05-10T13:53:20.937Z,33.03
2019-05-10T13:55:49.632Z,34.39
2019-05-10T13:58:20.892Z,34.48
2019-05-10T14:00:52.640Z,33.71
2019-05-10T14:03:23.823Z,33.14
2019-05-10T14:05:55.440Z,32.39
2019-05-10T14:08:26.989Z,31.51
2019-05-10T14:11:01.387Z,31.10
2019-05-10T14:13:35.851Z,30.84
2019-05-10T14:16:05.128Z,30.79
2019-05-10T14:18:37.203Z,30.52
2019-05-10T14:21:08.751Z,31.09
2019-05-10T14:23:40.611Z,32.40
2019-05-10T14:26:15.865Z,32.57
2019-05-10T14:28:47.403Z,31.91
2019-05-10T14:31:18.149Z,30.46
2019-05-10T14:34:14.020Z,29.79
2019-05-10T14:36:23.783Z,29.40
2019-05-10T14:38:56.465Z,29.66
2019-05-10T14:41:28.157Z,30.27
2019-05-10T14:43:59.800Z,31.04
2019-05-10T14:46:31.474Z,30.51
2019-05-10T14:49:09.835Z,30.08
2019-05-10T14:51:49.550Z,29.34
2019-05-10T14:54:09.767Z,28.90
2019-05-10T14:56:41.390Z,28.58
2019-05-10T14:59:12.905Z,28.59
2019-05-10T15:01:45.455Z,28.36
2019-05-10T15:04:20.194Z,28.33
2019-05-10T15:06:50.335Z,28.12
2019-05-10T15:09:24.188Z,27.94
2019-05-10T15:11:54.693Z,27.39
2019-05-10T15:14:26.019Z,27.47
2019-05-10T15:16:57.266Z,27.38
2019-05-10T15:19:31.335Z,27.11
2019-05-10T15:22:01.726Z,26.84
2019-05-10T15:24:32.955Z,26.85
2019-05-10T15:27:04.343Z,26.72
2019-05-10T15:29:35.875Z,26.61
2019-05-10T15:32:07.309Z,26.69
2019-05-10T15:34:38.667Z,26.73
2019-05-10T15:37:10.778Z,26.82
2019-05-10T15:39:42.077Z,26.89
2019-05-10T15:42:13.423Z,26.89
2019-05-10T15:44:44.917Z,26.96
2019-05-10T15:47:20.632Z,26.93
2019-05-10T15:49:54.749Z,26.95
2019-05-10T15:52:24.110Z,26.88
2019-05-10T15:54:55.602Z,26.78
2019-05-10T15:57:26.950Z,26.91
2019-05-10T15:59:59.210Z,27.16
2019-05-10T16:02:30.384Z,28.20
2019-05-10T16:05:01.838Z,29.22
2019-05-10T16:07:33.083Z,29.82
2019-05-10T16:10:05.377Z,30.17
2019-05-10T16:12:37.920Z,29.84
2019-05-10T16:15:13.792Z,29.30
2019-05-10T16:17:42.368Z,28.91
2019-05-10T16:20:14.735Z,29.07
2019-05-10T16:22:46.116Z,28.82
2019-05-10T16:25:17.231Z,28.36
2019-05-10T16:27:48.377Z,27.99
2019-05-10T16:30:20.308Z,27.71
2019-05-10T16:32:51.688Z,27.31
2019-05-10T16:35:22.943Z,26.76
2019-05-10T16:37:54.388Z,26.59
2019-05-10T16:40:25.877Z,26.37
2019-05-10T16:42:56.992Z,26.18
2019-05-10T16:45:28.303Z,26.05
2019-05-10T16:47:59.694Z,25.95
2019-05-10T16:50:33.685Z,25.79
2019-05-10T16:53:05.627Z,25.61
2019-05-10T16:55:40.669Z,25.49
2019-05-10T16:58:15.352Z,25.28
2019-05-10T17:00:46.381Z,25.11
2019-05-10T17:03:18.660Z,24.88
2019-05-10T17:05:53.600Z,24.71
2019-05-10T17:08:22.593Z,24.63
2019-05-10T17:10:54.146Z,24.54
2019-05-10T17:13:25.398Z,24.37
2019-05-10T17:15:56.659Z,24.34
2019-05-10T17:18:28.100Z,24.27
2019-05-10T17:20:59.647Z,24.26
2019-05-10T17:23:31.406Z,24.13
2019-05-10T17:26:02.972Z,23.99
2019-05-10T17:28:35.299Z,23.78
2019-05-10T17:31:08.166Z,23.78
2019-05-10T17:33:42.798Z,23.66
2019-05-10T17:36:14.540Z,23.41
2019-05-10T17:38:47.211Z,23.41
2019-05-10T17:41:24.850Z,23.18
2019-05-10T17:43:52.874Z,23.18
2019-05-10T17:46:24.535Z,23.21
2019-05-10T17:48:56.072Z,23.20
2019-05-10T17:51:27.712Z,23.22
2019-05-10T17:54:01.330Z,23.22
2019-05-10T17:56:38.721Z,23.25
2019-05-10T17:59:11.869Z,23.14
2019-05-10T18:01:40.143Z,23.07
2019-05-10T18:04:11.760Z,23.00
2019-05-10T18:06:43.253Z,22.93
2019-05-10T18:09:14.683Z,22.81
2019-05-10T18:11:46.222Z,22.68
2019-05-10T18:14:19.400Z,22.45
2019-05-10T18:16:50.968Z,22.37
2019-05-10T18:19:24.703Z,22.40
2019-05-10T18:22:00.796Z,22.32
2019-05-10T18:24:30.154Z,22.20
2019-05-10T18:27:01.797Z,22.13
2019-05-10T18:29:33.261Z,22.12
2019-05-10T18:32:04.949Z,22.09
2019-05-10T18:34:36.594Z,22.14
2019-05-10T18:37:08.044Z,22.15
2019-05-10T18:39:39.878Z,22.10
2019-05-10T18:42:11.437Z,22.05
2019-05-10T18:44:45.829Z,21.99
2019-05-10T18:47:16.287Z,21.85
2019-05-10T18:49:47.978Z,21.63
2019-05-10T18:52:20.454Z,21.54
2019-05-10T18:54:52.041Z,21.52
2019-05-10T18:57:23.954Z,21.57
2019-05-10T18:59:55.406Z,21.61
2019-05-10T19:02:28.096Z,21.60
2019-05-10T19:04:59.917Z,21.64
2019-05-10T19:07:31.810Z,21.71
2019-05-10T19:10:05.607Z,21.76
2019-05-10T19:12:38.063Z,21.75
2019-05-10T19:15:15.090Z,21.69
2019-05-10T19:17:45.988Z,21.67
2019-05-10T19:20:18.511Z,21.58
2019-05-10T19:22:50.094Z,21.59
2019-05-10T19:25:21.720Z,21.55
2019-05-10T19:27:53.473Z,21.58
2019-05-10T19:30:25.132Z,21.57
2019-05-10T19:32:58.137Z,21.57
2019-05-10T19:35:34.852Z,21.56
2019-05-10T19:38:02.461Z,21.60
2019-05-10T19:40:34.229Z,21.64
2019-05-10T19:43:06.592Z,21.73
2019-05-10T19:45:38.105Z,21.72
2019-05-10T19:48:09.299Z,21.77
2019-05-10T19:50:40.957Z,21.80
2019-05-10T19:53:12.589Z,21.81
2019-05-10T19:55:43.637Z,21.75
2019-05-10T19:58:14.900Z,21.69
2019-05-10T20:00:46.593Z,21.67
2019-05-10T20:03:18.143Z,21.61
2019-05-10T20:05:49.662Z,21.63
2019-05-10T20:08:21.215Z,21.62
2019-05-10T20:10:52.977Z,21.55
2019-05-10T20:13:24.449Z,21.43
2019-05-10T20:15:55.879Z,21.36
2019-05-10T20:18:27.332Z,21.30
2019-05-10T20:20:58.792Z,21.37
2019-05-10T20:23:30.443Z,21.35
2019-05-10T20:26:02.038Z,21.35
2019-05-10T20:28:33.354Z,21.33
2019-05-10T20:31:05.023Z,21.30
2019-05-10T20:33:36.467Z,21.24
2019-05-10T20:36:07.818Z,21.24
2019-05-10T20:38:39.076Z,21.14
2019-05-10T20:41:10.739Z,21.21
2019-05-10T20:43:42.486Z,21.13
2019-05-10T20:46:13.943Z,21.23
2019-05-10T20:48:45.800Z,21.13
2019-05-10T20:51:17.053Z,21.08
2019-05-10T20:53:48.506Z,21.06
2019-05-10T20:56:19.756Z,20.96
2019-05-10T20:58:51.208Z,20.86
2019-05-10T21:01:22.365Z,20.97
2019-05-10T21:03:53.505Z,20.91
2019-05-10T21:06:24.858Z,20.93
2019-05-10T21:08:56.426Z,20.96
2019-05-10T21:11:28.792Z,20.96
2019-05-10T21:14:00.256Z,21.08
2019-05-10T21:16:31.705Z,21.11
2019-05-10T21:19:03.080Z,21.12
2019-05-10T21:21:34.303Z,21.23
2019-05-10T21:24:06.093Z,21.24
2019-05-10T21:26:37.325Z,21.35
2019-05-10T21:29:08.990Z,21.34
2019-05-10T21:31:40.677Z,21.44
2019-05-10T21:34:12.432Z,21.45
2019-05-10T21:36:43.975Z,21.45
2019-05-10T21:39:15.419Z,21.61
2019-05-10T21:41:46.791Z,21.52
2019-05-10T21:44:18.146Z,21.61
2019-05-10T21:46:53.212Z,21.58
2019-05-10T21:49:22.475Z,21.63
2019-05-10T21:51:54.133Z,21.71
2019-05-10T21:54:26.510Z,21.81
2019-05-10T21:56:58.066Z,21.81
2019-05-10T21:59:29.420Z,21.81
2019-05-10T22:02:00.979Z,21.91
2019-05-10T22:04:32.235Z,21.92
2019-05-10T22:07:03.689Z,21.98
2019-05-10T22:09:35.871Z,21.99
2019-05-10T22:12:09.495Z,22.00
2019-05-10T22:14:40.821Z,22.00
2019-05-10T22:17:14.653Z,22.00
2019-05-10T22:19:46.566Z,22.02
2019-05-10T22:22:18.351Z,22.07
2019-05-10T22:24:50.225Z,22.13
2019-05-10T22:27:21.709Z,22.13
2019-05-10T22:29:53.150Z,22.18
2019-05-10T22:32:25.525Z,22.18
2019-05-10T22:34:57.311Z,22.17
2019-05-10T22:37:29.563Z,22.15
2019-05-10T22:40:01.018Z,22.17
2019-05-10T22:42:35.088Z,22.17
2019-05-10T22:45:06.797Z,22.20
2019-05-10T22:47:38.176Z,22.23
2019-05-10T22:50:09.407Z,22.33
2019-05-10T22:52:40.755Z,22.39
2019-05-10T22:55:13.650Z,22.42
2019-05-10T22:57:45.206Z,22.42
2019-05-10T23:00:16.776Z,22.34
2019-05-10T23:02:48.232Z,22.27
2019-05-10T23:05:19.783Z,22.15
2019-05-10T23:07:51.143Z,22.09
2019-05-10T23:10:23.613Z,22.08
2019-05-10T23:12:56.115Z,22.08
2019-05-10T23:15:27.682Z,22.10
2019-05-10T23:17:59.236Z,22.15
2019-05-10T23:20:31.305Z,22.11
2019-05-10T23:23:02.878Z,22.04
2019-05-10T23:25:34.820Z,21.94
2019-05-10T23:28:06.592Z,21.93
2019-05-10T23:30:38.471Z,21.92
2019-05-10T23:33:10.333Z,21.96
2019-05-10T23:35:42.004Z,22.01
2019-05-10T23:38:13.434Z,22.04
2019-05-10T23:40:44.895Z,22.09
2019-05-10T23:43:17.083Z,22.22
2019-05-10T23:45:48.688Z,22.29
2019-05-10T23:48:20.592Z,22.32
2019-05-10T23:50:52.164Z,22.30
2019-05-10T23:53:23.616Z,22.26
2019-05-10T23:55:55.171Z,22.34
2019-05-10T23:58:27.161Z,22.37
